createdAt,value
2022-08-02T00:00:19.710Z,6.10
2022-08-02T00:01:19.778Z,8.30
2022-08-02T00:02:19.670Z,7.20
2022-08-02T00:03:19.659Z,6.70
2022-08-02T00:04:19.635Z,6.10
2022-08-02T00:05:19.609Z,7.20
2022-08-02T00:06:19.593Z,5.40
2022-08-02T00:07:19.571Z,5.30
2022-08-02T00:08:19.553Z,7.50
2022-08-02T00:09:19.530Z,6.30
2022-08-02T00:10:19.512Z,5.20
2022-08-02T00:11:19.491Z,6.00
2022-08-02T00:12:19.472Z,4.80
2022-08-02T00:13:19.453Z,6.70
2022-08-02T00:14:19.429Z,6.80
2022-08-02T00:15:19.413Z,7.00
2022-08-02T00:16:19.390Z,6.70
2022-08-02T00:17:19.371Z,5.50
2022-08-02T00:18:19.364Z,5.10
2022-08-02T00:19:19.332Z,6.30
2022-08-02T00:20:19.310Z,6.70
2022-08-02T00:21:19.291Z,6.10
2022-08-02T00:22:19.269Z,6.80
2022-08-02T00:23:19.254Z,9.10
2022-08-02T00:24:29.306Z,6.80
2022-08-02T00:25:19.209Z,6.50
2022-08-02T00:26:19.188Z,7.50
2022-08-02T00:27:19.179Z,8.20
2022-08-02T00:28:26.884Z,8.40
2022-08-02T00:29:19.129Z,8.30
2022-08-02T00:30:19.122Z,8.20
2022-08-02T00:31:19.089Z,8.20
2022-08-02T00:32:19.074Z,7.60
2022-08-02T00:33:19.053Z,7.60
2022-08-02T00:34:28.640Z,7.30
2022-08-02T00:35:19.007Z,6.40
2022-08-02T00:36:18.988Z,7.00
2022-08-02T00:37:18.969Z,8.10
2022-08-02T00:38:18.947Z,7.10
2022-08-02T00:39:33.347Z,7.40
2022-08-02T00:40:18.909Z,6.30
2022-08-02T00:41:18.895Z,7.50
2022-08-02T00:42:18.871Z,7.20
2022-08-02T00:43:18.848Z,6.30
2022-08-02T00:44:18.825Z,7.10
2022-08-02T00:45:18.806Z,7.20
2022-08-02T00:46:18.785Z,7.90
2022-08-02T00:47:19.506Z,7.30
2022-08-02T00:48:18.751Z,7.60
2022-08-02T00:49:18.779Z,7.30
2022-08-02T00:50:18.711Z,6.60
2022-08-02T00:51:18.693Z,10.00
2022-08-02T00:52:18.670Z,7.00
2022-08-02T00:53:18.671Z,6.50
2022-08-02T00:54:18.628Z,6.30
2022-08-02T00:55:18.766Z,8.10
2022-08-02T00:56:18.582Z,6.50
2022-08-02T00:57:18.561Z,5.00
2022-08-02T00:58:18.548Z,6.20
2022-08-02T00:59:18.557Z,6.90
2022-08-02T01:00:18.504Z,6.60
2022-08-02T01:01:18.540Z,5.90
2022-08-02T01:02:18.579Z,4.50
2022-08-02T01:03:18.447Z,7.20
2022-08-02T01:04:18.423Z,5.50
2022-08-02T01:05:18.407Z,5.20
2022-08-02T01:06:18.381Z,6.10
2022-08-02T01:07:18.361Z,5.00
2022-08-02T01:08:18.342Z,7.00
2022-08-02T01:09:18.321Z,5.80
2022-08-02T01:10:18.300Z,6.90
2022-08-02T01:11:18.278Z,5.90
2022-08-02T01:12:18.264Z,5.90
2022-08-02T01:13:18.245Z,5.90
2022-08-02T01:14:18.219Z,5.50
2022-08-02T01:15:18.200Z,5.40
2022-08-02T01:16:18.180Z,7.40
2022-08-02T01:17:18.163Z,6.00
2022-08-02T01:18:18.136Z,6.10
2022-08-02T01:19:18.119Z,7.00
2022-08-02T01:20:18.096Z,6.20
2022-08-02T01:21:18.079Z,6.60
2022-08-02T01:22:18.056Z,8.30
2022-08-02T01:23:18.037Z,6.60
2022-08-02T01:24:18.014Z,6.20
2022-08-02T01:25:17.995Z,6.80
2022-08-02T01:26:17.973Z,6.60
2022-08-02T01:27:17.955Z,7.10
2022-08-02T01:28:17.935Z,7.00
2022-08-02T01:29:17.914Z,6.60
2022-08-02T01:30:17.895Z,7.40
2022-08-02T01:31:17.873Z,7.50
2022-08-02T01:32:17.857Z,7.10
2022-08-02T01:33:17.832Z,6.90
2022-08-02T01:34:17.815Z,6.40
2022-08-02T01:35:17.796Z,9.00
2022-08-02T01:36:17.773Z,8.30
2022-08-02T01:37:17.755Z,6.90
2022-08-02T01:38:17.729Z,6.70
2022-08-02T01:39:26.810Z,8.60
2022-08-02T01:40:17.691Z,6.80
2022-08-02T01:41:17.671Z,5.80
2022-08-02T01:42:17.650Z,5.90
2022-08-02T01:43:17.631Z,8.00
2022-08-02T01:44:17.607Z,5.90
2022-08-02T01:45:17.589Z,6.20
2022-08-02T01:46:17.567Z,6.70
2022-08-02T01:47:17.554Z,8.90
2022-08-02T01:48:17.528Z,8.50
2022-08-02T01:49:17.598Z,8.40
2022-08-02T01:50:17.485Z,6.90
2022-08-02T01:51:17.467Z,6.50
2022-08-02T01:52:17.453Z,6.80
2022-08-02T01:53:17.426Z,8.00
2022-08-02T01:54:17.405Z,6.40
2022-08-02T01:55:18.829Z,7.40
2022-08-02T01:56:17.366Z,8.40
2022-08-02T01:57:17.342Z,6.40
2022-08-02T01:58:17.322Z,6.30
2022-08-02T01:59:17.304Z,7.60
2022-08-02T02:00:17.281Z,7.80
2022-08-02T02:01:18.714Z,8.20
2022-08-02T02:02:17.247Z,7.20
2022-08-02T02:03:17.220Z,6.70
2022-08-02T02:04:17.202Z,6.50
2022-08-02T02:05:17.183Z,7.40
2022-08-02T02:06:17.162Z,7.00
2022-08-02T02:07:17.140Z,5.90
2022-08-02T02:08:27.260Z,6.50
2022-08-02T02:09:17.099Z,7.50
2022-08-02T02:10:17.078Z,6.80
2022-08-02T02:12:14.452Z,7.70
2022-08-02T02:12:17.414Z,6.90
2022-08-02T02:13:17.017Z,5.50
2022-08-02T02:14:17.005Z,6.40
2022-08-02T02:15:16.977Z,7.20
2022-08-02T02:16:16.953Z,9.30
2022-08-02T02:17:52.638Z,6.40
2022-08-02T02:18:16.914Z,9.50
2022-08-02T02:19:21.014Z,6.20
2022-08-02T02:20:16.874Z,8.50
2022-08-02T02:21:16.853Z,7.40
2022-08-02T02:22:16.835Z,6.90
2022-08-02T02:23:16.813Z,8.90
2022-08-02T02:24:16.790Z,6.60
2022-08-02T02:25:16.771Z,7.50
2022-08-02T02:26:17.525Z,8.00
2022-08-02T02:27:16.733Z,8.70
2022-08-02T02:28:16.709Z,4.90
2022-08-02T02:29:16.687Z,5.80
2022-08-02T02:30:16.672Z,6.40
2022-08-02T02:31:16.653Z,7.20
2022-08-02T02:32:16.630Z,7.50
2022-08-02T02:33:16.612Z,10.90
2022-08-02T02:34:16.590Z,6.80
2022-08-02T02:35:16.574Z,6.50
2022-08-02T02:36:16.553Z,8.70
2022-08-02T02:37:16.522Z,8.30
2022-08-02T02:38:16.504Z,6.50
2022-08-02T02:39:16.484Z,6.60
2022-08-02T02:40:16.464Z,5.00
2022-08-02T02:41:16.442Z,7.10
2022-08-02T02:42:16.425Z,6.90
2022-08-02T02:43:16.401Z,9.00
2022-08-02T02:44:16.388Z,4.90
2022-08-02T02:45:16.361Z,4.80
2022-08-02T02:46:16.341Z,6.00
2022-08-02T02:47:16.318Z,4.60
2022-08-02T02:48:16.309Z,6.70
2022-08-02T02:49:16.377Z,6.10
2022-08-02T02:50:16.257Z,6.90
2022-08-02T02:51:16.237Z,7.10
2022-08-02T02:52:16.217Z,7.20
2022-08-02T02:53:16.199Z,6.40
2022-08-02T02:54:30.874Z,7.50
2022-08-02T02:55:16.154Z,7.30
2022-08-02T02:56:16.135Z,6.60
2022-08-02T02:57:16.111Z,5.80
2022-08-02T02:58:16.091Z,7.00
2022-08-02T02:59:16.071Z,8.50
2022-08-02T03:00:16.060Z,6.50
2022-08-02T03:01:16.292Z,8.00
2022-08-02T03:02:16.011Z,6.70
2022-08-02T03:03:15.987Z,4.70
2022-08-02T03:04:15.968Z,4.80
2022-08-02T03:05:15.946Z,5.20
2022-08-02T03:06:16.212Z,4.90
2022-08-02T03:07:15.910Z,4.80
2022-08-02T03:08:15.888Z,5.30
2022-08-02T03:09:15.864Z,7.90
2022-08-02T03:10:15.847Z,6.40
2022-08-02T03:11:15.826Z,5.70
2022-08-02T03:12:15.806Z,4.50
2022-08-02T03:13:15.781Z,5.70
2022-08-02T03:14:15.763Z,5.60
2022-08-02T03:15:15.741Z,7.10
2022-08-02T03:16:15.721Z,5.60
2022-08-02T03:17:15.699Z,6.80
2022-08-02T03:18:15.680Z,6.60
2022-08-02T03:19:15.659Z,7.00
2022-08-02T03:20:15.638Z,6.10
2022-08-02T03:21:15.615Z,5.80
2022-08-02T03:22:15.599Z,7.70
2022-08-02T03:23:15.579Z,7.50
2022-08-02T03:24:15.556Z,7.00
2022-08-02T03:25:15.533Z,7.40
2022-08-02T03:26:15.517Z,7.20
2022-08-02T03:27:15.496Z,7.40
2022-08-02T03:28:15.480Z,5.60
2022-08-02T03:29:15.451Z,7.30
2022-08-02T03:30:15.431Z,6.00
2022-08-02T03:31:15.418Z,6.70
2022-08-02T03:32:15.393Z,8.70
2022-08-02T03:33:15.371Z,7.50
2022-08-02T03:34:15.352Z,8.00
2022-08-02T03:35:18.578Z,6.50
2022-08-02T03:36:15.309Z,6.60
2022-08-02T03:37:15.284Z,7.30
2022-08-02T03:38:15.265Z,6.40
2022-08-02T03:39:15.244Z,7.00
2022-08-02T03:40:15.228Z,5.90
2022-08-02T03:41:15.201Z,6.20
2022-08-02T03:42:15.559Z,6.80
2022-08-02T03:43:15.164Z,6.30
2022-08-02T03:44:15.143Z,7.10
2022-08-02T03:45:15.121Z,7.70
2022-08-02T03:46:15.100Z,6.50
2022-08-02T03:47:15.076Z,5.30
2022-08-02T03:48:35.010Z,6.70
2022-08-02T03:49:15.067Z,7.90
2022-08-02T03:50:15.020Z,6.60
2022-08-02T03:51:14.995Z,8.10
2022-08-02T03:52:14.977Z,7.50
2022-08-02T03:53:16.962Z,11.10
2022-08-02T03:54:15.029Z,6.80
2022-08-02T03:55:14.917Z,7.50
2022-08-02T03:56:14.896Z,5.90
2022-08-02T03:57:14.871Z,4.70
2022-08-02T03:58:14.850Z,5.10
2022-08-02T03:59:15.007Z,4.50
2022-08-02T04:00:14.810Z,7.10
2022-08-02T04:01:14.822Z,5.30
2022-08-02T04:02:14.963Z,4.90
2022-08-02T04:03:17.000Z,4.70
2022-08-02T04:04:14.762Z,5.40
2022-08-02T04:05:14.705Z,5.90
2022-08-02T04:06:15.884Z,5.20
2022-08-02T04:07:14.667Z,5.40
2022-08-02T04:08:36.767Z,5.20
2022-08-02T04:09:14.623Z,4.30
2022-08-02T04:10:14.602Z,5.80
2022-08-02T04:11:14.587Z,4.30
2022-08-02T04:12:14.571Z,5.10
2022-08-02T04:13:14.539Z,5.80
2022-08-02T04:14:14.520Z,7.10
2022-08-02T04:15:14.496Z,5.80
2022-08-02T04:16:14.477Z,6.90
2022-08-02T04:17:14.466Z,5.50
2022-08-02T04:18:14.441Z,6.50
2022-08-02T04:19:14.627Z,6.40
2022-08-02T04:20:14.394Z,6.70
2022-08-02T04:21:14.371Z,4.70
2022-08-02T04:22:14.687Z,5.50
2022-08-02T04:23:14.459Z,7.80
2022-08-02T04:24:14.310Z,6.50
2022-08-02T04:25:17.550Z,7.50
2022-08-02T04:26:14.269Z,6.80
2022-08-02T04:27:49.342Z,7.20
2022-08-02T04:28:17.538Z,7.00
2022-08-02T04:29:14.204Z,6.30
2022-08-02T04:30:14.189Z,8.80
2022-08-02T04:31:14.168Z,6.50
2022-08-02T04:32:14.752Z,6.50
2022-08-02T04:33:14.123Z,7.80
2022-08-02T04:34:15.330Z,6.90
2022-08-02T04:35:21.220Z,6.90
2022-08-02T04:36:14.061Z,5.80
2022-08-02T04:37:14.039Z,6.20
2022-08-02T04:38:14.029Z,6.10
2022-08-02T04:39:14.053Z,8.30
2022-08-02T04:40:13.978Z,6.70
2022-08-02T04:41:13.954Z,5.80
2022-08-02T04:42:14.305Z,6.90
2022-08-02T04:43:13.917Z,6.00
2022-08-02T04:44:13.910Z,6.70
2022-08-02T04:45:16.642Z,10.30
2022-08-02T04:46:13.850Z,8.00
2022-08-02T04:47:13.833Z,8.80
2022-08-02T04:48:13.816Z,8.60
2022-08-02T04:49:13.983Z,7.40
2022-08-02T04:50:13.772Z,8.50
2022-08-02T04:51:13.751Z,11.00
2022-08-02T04:52:14.089Z,7.90
2022-08-02T04:53:13.704Z,9.60
2022-08-02T04:54:13.784Z,8.70
2022-08-02T04:55:13.668Z,9.00
2022-08-02T04:56:13.643Z,7.50
2022-08-02T04:57:13.622Z,8.20
2022-08-02T04:58:38.992Z,6.90
2022-08-02T04:59:13.693Z,8.30
2022-08-02T05:00:13.560Z,9.10
2022-08-02T05:01:13.723Z,6.50
2022-08-02T05:02:13.757Z,7.60
2022-08-02T05:03:13.497Z,8.50
2022-08-02T05:04:13.480Z,9.10
2022-08-02T05:05:13.457Z,7.30
2022-08-02T05:06:19.526Z,7.00
2022-08-02T05:07:13.415Z,8.60
2022-08-02T05:08:13.399Z,6.90
2022-08-02T05:09:13.374Z,7.60
2022-08-02T05:10:13.354Z,9.00
2022-08-02T05:11:13.335Z,7.40
2022-08-02T05:12:13.781Z,7.60
2022-08-02T05:13:13.289Z,8.10
2022-08-02T05:14:13.270Z,10.70
2022-08-02T05:15:13.270Z,7.70
2022-08-02T05:16:13.230Z,9.30
2022-08-02T05:17:13.209Z,6.70
2022-08-02T05:18:13.188Z,9.20
2022-08-02T05:19:13.166Z,8.90
2022-08-02T05:20:13.150Z,8.70
2022-08-02T05:21:13.126Z,8.00
2022-08-02T05:22:13.458Z,8.40
2022-08-02T05:23:13.085Z,8.10
2022-08-02T05:24:13.063Z,8.10
2022-08-02T05:25:13.048Z,9.40
2022-08-02T05:26:13.023Z,10.00
2022-08-02T05:27:21.644Z,9.00
2022-08-02T05:28:12.987Z,9.90
2022-08-02T05:29:12.961Z,10.40
2022-08-02T05:30:12.939Z,9.70
2022-08-02T05:31:13.238Z,10.20
2022-08-02T05:32:13.336Z,10.20
2022-08-02T05:33:12.882Z,12.00
2022-08-02T05:34:12.862Z,13.30
2022-08-02T05:35:12.839Z,10.80
2022-08-02T05:36:12.819Z,12.40
2022-08-02T05:37:12.798Z,13.60
2022-08-02T05:38:12.779Z,11.50
2022-08-02T05:39:18.964Z,10.10
2022-08-02T05:40:13.437Z,9.30
2022-08-02T05:41:12.715Z,11.00
2022-08-02T05:42:13.092Z,13.20
2022-08-02T05:43:12.676Z,12.00
2022-08-02T05:44:12.659Z,14.00
2022-08-02T05:45:12.634Z,11.20
2022-08-02T05:46:12.616Z,12.10
2022-08-02T05:47:12.596Z,10.00
2022-08-02T05:48:12.577Z,10.60
2022-08-02T05:49:12.635Z,11.00
2022-08-02T05:50:12.537Z,10.10
2022-08-02T05:51:12.515Z,11.60
2022-08-02T05:52:12.861Z,11.40
2022-08-02T05:53:12.473Z,11.00
2022-08-02T05:54:12.455Z,10.60
2022-08-02T05:55:12.434Z,13.30
2022-08-02T05:56:12.414Z,12.30
2022-08-02T05:57:12.390Z,10.90
2022-08-02T05:58:12.374Z,14.10
2022-08-02T05:59:12.361Z,11.60
2022-08-02T06:00:12.334Z,13.60
2022-08-02T06:01:12.353Z,14.20
2022-08-02T06:02:12.698Z,12.30
2022-08-02T06:03:12.273Z,15.50
2022-08-02T06:04:12.253Z,13.00
2022-08-02T06:05:12.232Z,13.50
2022-08-02T06:06:12.211Z,13.00
2022-08-02T06:07:12.198Z,13.60
2022-08-02T06:08:12.172Z,14.40
2022-08-02T06:09:12.151Z,13.90
2022-08-02T06:10:12.134Z,13.10
2022-08-02T06:11:12.110Z,13.60
2022-08-02T06:12:12.293Z,13.60
2022-08-02T06:13:14.548Z,14.50
2022-08-02T06:14:12.052Z,13.70
2022-08-02T06:15:12.029Z,13.60
2022-08-02T06:16:13.984Z,15.10
2022-08-02T06:17:11.987Z,15.80
2022-08-02T06:18:11.970Z,17.70
2022-08-02T06:19:11.953Z,15.90
2022-08-02T06:20:11.933Z,15.30
2022-08-02T06:22:42.028Z,16.20
2022-08-02T06:22:42.130Z,16.80
2022-08-02T06:23:13.803Z,17.40
2022-08-02T06:24:11.850Z,19.00
2022-08-02T06:25:48.171Z,19.60
2022-08-02T06:26:11.811Z,18.00
2022-08-02T06:27:11.786Z,18.10
2022-08-02T06:28:11.830Z,18.10
2022-08-02T06:29:11.747Z,17.60
2022-08-02T06:30:11.730Z,18.40
2022-08-02T06:31:11.710Z,17.20
2022-08-02T06:32:11.872Z,16.50
2022-08-02T06:33:11.667Z,16.00
2022-08-02T06:34:11.650Z,15.90
2022-08-02T06:35:11.630Z,15.70
2022-08-02T06:36:11.609Z,19.40
2022-08-02T06:37:11.589Z,15.20
2022-08-02T06:38:11.572Z,15.50
2022-08-02T06:39:11.549Z,15.00
2022-08-02T06:40:11.530Z,16.00
2022-08-02T06:41:11.508Z,15.70
2022-08-02T06:42:11.790Z,15.40
2022-08-02T06:43:11.472Z,16.40
2022-08-02T06:44:44.705Z,15.90
2022-08-02T06:45:11.428Z,17.60
2022-08-02T06:46:57.193Z,16.30
2022-08-02T06:47:13.306Z,16.30
2022-08-02T06:48:11.376Z,16.70
2022-08-02T06:49:11.671Z,16.40
2022-08-02T06:50:11.334Z,16.30
2022-08-02T06:51:11.317Z,17.00
2022-08-02T06:52:11.606Z,16.20
2022-08-02T06:53:11.276Z,17.80
2022-08-02T06:54:11.255Z,15.50
2022-08-02T06:55:11.235Z,16.60
2022-08-02T06:56:11.211Z,16.10
2022-08-02T06:57:11.197Z,15.60
2022-08-02T06:58:11.173Z,16.40
2022-08-02T06:59:11.153Z,15.50
2022-08-02T07:00:11.133Z,16.20
2022-08-02T07:01:11.197Z,19.20
2022-08-02T07:02:11.432Z,17.00
2022-08-02T07:03:11.076Z,16.90
2022-08-02T07:04:11.064Z,16.50
2022-08-02T07:05:11.036Z,16.70
2022-08-02T07:06:11.018Z,16.00
2022-08-02T07:07:10.998Z,18.40
2022-08-02T07:08:10.976Z,17.00
2022-08-02T07:09:20.369Z,15.80
2022-08-02T07:10:10.935Z,15.20
2022-08-02T07:11:10.918Z,16.60
2022-08-02T07:12:11.084Z,15.70
2022-08-02T07:13:10.881Z,17.10
2022-08-02T07:14:10.859Z,14.90
2022-08-02T07:15:10.839Z,15.30
2022-08-02T07:16:10.820Z,16.70
2022-08-02T07:17:10.800Z,13.80
2022-08-02T07:18:10.781Z,15.80
2022-08-02T07:19:10.764Z,15.30
2022-08-02T07:20:10.748Z,13.10
2022-08-02T07:21:10.723Z,12.70
2022-08-02T07:22:10.789Z,13.00
2022-08-02T07:23:10.682Z,12.50
2022-08-02T07:24:10.666Z,13.40
2022-08-02T07:25:10.644Z,12.30
2022-08-02T07:26:10.624Z,11.90
2022-08-02T07:27:12.367Z,12.20
2022-08-02T07:28:16.828Z,13.60
2022-08-02T07:29:10.572Z,12.10
2022-08-02T07:30:10.549Z,12.40
2022-08-02T07:31:10.527Z,12.10
2022-08-02T07:32:10.750Z,11.70
2022-08-02T07:33:10.487Z,14.50
2022-08-02T07:34:10.468Z,13.80
2022-08-02T07:35:10.452Z,11.40
2022-08-02T07:36:16.844Z,11.00
2022-08-02T07:37:17.672Z,12.90
2022-08-02T07:38:10.393Z,12.20
2022-08-02T07:39:10.379Z,14.60
2022-08-02T07:40:14.037Z,11.70
2022-08-02T07:41:10.335Z,11.00
2022-08-02T07:42:10.531Z,14.30
2022-08-02T07:43:10.296Z,11.20
2022-08-02T07:44:10.277Z,11.30
2022-08-02T07:45:10.277Z,11.40
2022-08-02T07:46:10.240Z,10.40
2022-08-02T07:47:10.521Z,11.70
2022-08-02T07:48:10.199Z,12.40
2022-08-02T07:49:10.268Z,11.30
2022-08-02T07:50:10.190Z,10.70
2022-08-02T07:51:13.019Z,12.30
2022-08-02T07:52:10.518Z,13.60
2022-08-02T07:53:10.104Z,14.10
2022-08-02T07:54:10.088Z,13.30
2022-08-02T07:55:10.071Z,12.20
2022-08-02T07:56:10.047Z,10.40
2022-08-02T07:57:10.035Z,13.30
2022-08-02T07:58:12.402Z,13.30
2022-08-02T07:59:09.991Z,12.50
2022-08-02T08:00:09.970Z,12.10
2022-08-02T08:01:10.007Z,11.80
2022-08-02T08:02:10.283Z,11.50
2022-08-02T08:03:09.918Z,12.30
2022-08-02T08:04:09.899Z,10.80
2022-08-02T08:05:09.880Z,11.90
2022-08-02T08:06:09.858Z,12.20
2022-08-02T08:07:09.841Z,11.10
2022-08-02T08:08:13.800Z,11.00
2022-08-02T08:09:09.803Z,13.70
2022-08-02T08:10:09.788Z,11.60
2022-08-02T08:11:09.769Z,13.00
2022-08-02T08:12:10.134Z,10.90
2022-08-02T08:13:09.735Z,14.60
2022-08-02T08:14:14.658Z,9.10
2022-08-02T08:15:09.693Z,13.70
2022-08-02T08:16:09.685Z,11.40
2022-08-02T08:17:09.663Z,12.00
2022-08-02T08:18:09.640Z,10.30
2022-08-02T08:19:09.617Z,11.20
2022-08-02T08:20:12.867Z,11.70
2022-08-02T08:21:09.586Z,15.90
2022-08-02T08:22:09.999Z,12.30
2022-08-02T08:23:09.546Z,10.40
2022-08-02T08:24:09.525Z,11.00
2022-08-02T08:25:09.510Z,11.00
2022-08-02T08:26:13.933Z,11.70
2022-08-02T08:27:09.470Z,8.90
2022-08-02T08:28:09.455Z,11.70
2022-08-02T08:29:09.435Z,13.60
2022-08-02T08:30:09.415Z,9.80
2022-08-02T08:31:09.399Z,8.60
2022-08-02T08:32:12.817Z,8.80
2022-08-02T08:33:09.362Z,11.70
2022-08-02T08:34:09.342Z,11.50
2022-08-02T08:35:09.325Z,9.50
2022-08-02T08:36:09.314Z,8.90
2022-08-02T08:37:09.288Z,8.60
2022-08-02T08:38:09.270Z,9.50
2022-08-02T08:39:09.255Z,9.60
2022-08-02T08:40:09.236Z,7.80
2022-08-02T08:41:09.219Z,8.60
2022-08-02T08:42:09.691Z,9.10
2022-08-02T08:43:09.180Z,9.30
2022-08-02T08:44:09.166Z,9.00
2022-08-02T08:45:09.164Z,9.70
2022-08-02T08:46:09.130Z,10.20
2022-08-02T08:47:11.215Z,7.40
2022-08-02T08:48:09.091Z,9.90
2022-08-02T08:49:09.079Z,9.70
2022-08-02T08:50:14.368Z,9.50
2022-08-02T08:51:09.038Z,10.30
2022-08-02T08:52:09.489Z,10.50
2022-08-02T08:53:09.000Z,8.40
2022-08-02T08:54:08.987Z,8.30
2022-08-02T08:55:08.966Z,7.80
2022-08-02T08:56:12.838Z,8.80
2022-08-02T08:57:08.931Z,7.90
2022-08-02T08:58:08.912Z,8.20
2022-08-02T08:59:08.897Z,8.70
2022-08-02T09:00:08.882Z,8.20
2022-08-02T09:01:08.913Z,7.80
2022-08-02T09:02:16.826Z,7.00
2022-08-02T09:03:08.830Z,8.10
2022-08-02T09:04:08.811Z,7.10
2022-08-02T09:05:08.795Z,8.90
2022-08-02T09:06:08.773Z,6.00
2022-08-02T09:07:08.756Z,8.40
2022-08-02T09:08:11.268Z,9.10
2022-08-02T09:09:08.721Z,8.10
2022-08-02T09:10:08.701Z,7.70
2022-08-02T09:11:08.698Z,7.40
2022-08-02T09:12:08.825Z,6.50
2022-08-02T09:13:38.663Z,8.50
2022-08-02T09:14:08.634Z,6.90
2022-08-02T09:15:12.039Z,9.60
2022-08-02T09:16:12.953Z,7.90
2022-08-02T09:17:08.580Z,9.90
2022-08-02T09:18:08.565Z,10.40
2022-08-02T09:19:08.548Z,11.60
2022-08-02T09:20:08.530Z,8.20
2022-08-02T09:21:08.514Z,9.60
2022-08-02T09:22:08.622Z,8.10
2022-08-02T09:23:08.479Z,8.30
2022-08-02T09:24:08.464Z,7.30
2022-08-02T09:25:08.446Z,7.50
2022-08-02T09:26:08.432Z,7.00
2022-08-02T09:27:08.410Z,7.50
2022-08-02T09:28:08.401Z,6.20
2022-08-02T09:29:08.378Z,6.90
2022-08-02T09:30:12.172Z,6.40
2022-08-02T09:31:08.340Z,11.90
2022-08-02T09:32:08.322Z,8.20
2022-08-02T09:33:08.305Z,7.40
2022-08-02T09:34:08.302Z,6.80
2022-08-02T09:35:08.276Z,6.90
2022-08-02T09:36:08.644Z,7.70
2022-08-02T09:37:08.243Z,6.90
2022-08-02T09:38:08.221Z,6.30
2022-08-02T09:39:08.205Z,6.70
2022-08-02T09:40:08.189Z,7.60
2022-08-02T09:41:08.171Z,7.10
2022-08-02T09:42:08.153Z,7.00
2022-08-02T09:43:08.137Z,7.10
2022-08-02T09:44:09.770Z,5.30
2022-08-02T09:45:08.110Z,6.70
2022-08-02T09:46:08.086Z,6.80
2022-08-02T09:47:08.070Z,6.90
2022-08-02T09:48:08.055Z,6.20
2022-08-02T09:49:08.236Z,5.60
2022-08-02T09:50:11.057Z,6.70
2022-08-02T09:51:08.002Z,5.60
2022-08-02T09:52:07.986Z,5.20
2022-08-02T09:53:07.974Z,6.70
2022-08-02T09:54:09.063Z,6.10
2022-08-02T09:55:07.943Z,7.10
2022-08-02T09:56:29.470Z,5.80
2022-08-02T09:57:07.904Z,6.80
2022-08-02T09:58:07.887Z,8.50
2022-08-02T09:59:07.871Z,8.20
2022-08-02T10:00:07.855Z,7.30
2022-08-02T10:01:07.865Z,6.10
2022-08-02T10:02:07.906Z,6.20
2022-08-02T10:03:07.804Z,7.10
2022-08-02T10:04:07.787Z,6.10
2022-08-02T10:05:07.770Z,7.40
2022-08-02T10:06:07.781Z,6.00
2022-08-02T10:07:07.737Z,6.80
2022-08-02T10:08:07.723Z,6.00
2022-08-02T10:09:07.703Z,6.80
2022-08-02T10:10:07.688Z,6.30
2022-08-02T10:11:07.680Z,6.20
2022-08-02T10:12:07.656Z,6.70
2022-08-02T10:13:07.639Z,5.70
2022-08-02T10:14:07.621Z,6.90
2022-08-02T10:15:07.617Z,6.40
2022-08-02T10:16:07.597Z,7.20
2022-08-02T10:17:07.573Z,7.00
2022-08-02T10:18:28.749Z,6.80
2022-08-02T10:19:07.541Z,6.60
2022-08-02T10:20:07.526Z,5.80
2022-08-02T10:21:07.512Z,6.70
2022-08-02T10:22:07.491Z,5.90
2022-08-02T10:23:07.474Z,6.10
2022-08-02T10:24:07.459Z,6.50
2022-08-02T10:25:07.444Z,6.30
2022-08-02T10:26:07.426Z,5.70
2022-08-02T10:27:07.411Z,7.20
2022-08-02T10:28:07.395Z,8.00
2022-08-02T10:29:07.379Z,5.20
2022-08-02T10:30:07.363Z,6.20
2022-08-02T10:31:07.347Z,5.80
2022-08-02T10:32:07.331Z,4.60
2022-08-02T10:33:07.316Z,5.60
2022-08-02T10:34:07.298Z,5.80
2022-08-02T10:35:20.002Z,6.20
2022-08-02T10:36:07.861Z,5.60
2022-08-02T10:37:07.251Z,5.40
2022-08-02T10:38:07.235Z,5.60
2022-08-02T10:39:07.219Z,5.80
2022-08-02T10:40:07.204Z,6.40
2022-08-02T10:41:07.186Z,5.20
2022-08-02T10:42:07.169Z,7.80
2022-08-02T10:43:07.156Z,7.10
2022-08-02T10:44:07.139Z,7.60
2022-08-02T10:45:07.127Z,5.00
2022-08-02T10:46:07.106Z,5.10
2022-08-02T10:47:07.096Z,5.60
2022-08-02T10:48:07.074Z,6.80
2022-08-02T10:49:36.144Z,5.50
2022-08-02T10:50:07.116Z,7.50
2022-08-02T10:51:07.033Z,6.60
2022-08-02T10:52:07.011Z,6.80
2022-08-02T10:53:06.996Z,4.80
2022-08-02T10:54:06.979Z,5.50
2022-08-02T10:55:10.807Z,6.00
2022-08-02T10:56:09.433Z,5.20
2022-08-02T10:57:06.932Z,8.40
2022-08-02T10:58:06.918Z,4.70
2022-08-02T10:59:06.901Z,6.20
2022-08-02T11:00:06.886Z,5.60
2022-08-02T11:01:06.966Z,6.40
2022-08-02T11:02:06.853Z,5.70
2022-08-02T11:03:06.839Z,5.80
2022-08-02T11:04:10.245Z,5.10
2022-08-02T11:05:06.805Z,8.40
2022-08-02T11:06:06.792Z,6.60
2022-08-02T11:07:06.775Z,7.30
2022-08-02T11:08:06.758Z,7.20
2022-08-02T11:09:06.743Z,4.60
2022-08-02T11:10:06.728Z,5.80
2022-08-02T11:11:06.709Z,4.80
2022-08-02T11:12:06.696Z,5.10
2022-08-02T11:13:06.683Z,6.60
2022-08-02T11:14:06.663Z,5.30
2022-08-02T11:15:07.563Z,5.90
2022-08-02T11:16:11.660Z,6.40
2022-08-02T11:17:06.626Z,9.30
2022-08-02T11:18:06.599Z,7.50
2022-08-02T11:19:07.161Z,5.00
2022-08-02T11:20:06.567Z,6.40
2022-08-02T11:21:06.558Z,5.60
2022-08-02T11:22:06.540Z,5.00
2022-08-02T11:23:06.521Z,5.70
2022-08-02T11:24:06.506Z,4.90
2022-08-02T11:25:06.490Z,5.70
2022-08-02T11:26:10.698Z,5.00
2022-08-02T11:27:06.457Z,6.30
2022-08-02T11:28:06.444Z,5.00
2022-08-02T11:29:06.426Z,6.80
2022-08-02T11:30:06.409Z,4.80
2022-08-02T11:31:06.397Z,5.30
2022-08-02T11:32:06.379Z,4.30
2022-08-02T11:33:06.360Z,7.10
2022-08-02T11:34:09.605Z,5.20
2022-08-02T11:35:06.329Z,5.20
2022-08-02T11:36:06.323Z,6.70
2022-08-02T11:37:06.299Z,4.90
2022-08-02T11:38:06.282Z,4.80
2022-08-02T11:39:06.270Z,4.80
2022-08-02T11:40:09.073Z,5.20
2022-08-02T11:41:10.315Z,5.20
2022-08-02T11:42:06.230Z,5.10
2022-08-02T11:43:06.206Z,4.20
2022-08-02T11:44:06.191Z,4.80
2022-08-02T11:45:06.175Z,4.30
2022-08-02T11:46:06.159Z,5.00
2022-08-02T11:47:06.141Z,4.50
2022-08-02T11:48:06.128Z,6.00
2022-08-02T11:49:08.517Z,5.50
2022-08-02T11:50:06.095Z,5.30
2022-08-02T11:51:06.085Z,5.10
2022-08-02T11:52:06.065Z,6.50
2022-08-02T11:53:06.049Z,5.00
2022-08-02T11:54:06.034Z,5.70
2022-08-02T11:55:06.018Z,6.10
2022-08-02T11:56:06.001Z,5.20
2022-08-02T11:57:05.985Z,6.40
2022-08-02T11:58:06.336Z,4.70
2022-08-02T11:59:05.962Z,7.60
2022-08-02T12:00:05.940Z,6.30
2022-08-02T12:01:05.921Z,5.90
2022-08-02T12:02:05.911Z,5.30
2022-08-02T12:03:05.954Z,5.10
2022-08-02T12:04:05.874Z,4.70
2022-08-02T12:05:08.965Z,5.90
2022-08-02T12:06:10.895Z,8.10
2022-08-02T12:07:05.829Z,7.00
2022-08-02T12:08:05.813Z,7.40
2022-08-02T12:09:05.798Z,5.00
2022-08-02T12:10:05.781Z,6.20
2022-08-02T12:11:05.762Z,5.60
2022-08-02T12:12:05.755Z,6.20
2022-08-02T12:13:05.731Z,6.40
2022-08-02T12:14:05.719Z,7.10
2022-08-02T12:15:05.700Z,6.40
2022-08-02T12:16:08.696Z,5.70
2022-08-02T12:17:05.668Z,6.00
2022-08-02T12:18:05.656Z,5.50
2022-08-02T12:19:05.637Z,6.00
2022-08-02T12:20:05.652Z,6.80
2022-08-02T12:21:05.610Z,6.70
2022-08-02T12:22:05.590Z,6.00
2022-08-02T12:23:05.574Z,6.00
2022-08-02T12:24:05.559Z,6.20
2022-08-02T12:25:06.241Z,8.30
2022-08-02T12:26:05.529Z,6.40
2022-08-02T12:27:05.514Z,6.60
2022-08-02T12:28:05.498Z,6.90
2022-08-02T12:29:05.482Z,6.90
2022-08-02T12:30:05.522Z,5.90
2022-08-02T12:31:05.449Z,6.00
2022-08-02T12:32:05.439Z,6.90
2022-08-02T12:33:05.416Z,5.70
2022-08-02T12:34:05.402Z,6.90
2022-08-02T12:35:05.386Z,6.10
2022-08-02T12:36:05.372Z,5.20
2022-08-02T12:37:05.356Z,6.60
2022-08-02T12:38:05.347Z,6.10
2022-08-02T12:39:05.325Z,6.50
2022-08-02T12:40:05.410Z,7.60
2022-08-02T12:41:05.313Z,6.10
2022-08-02T12:42:05.278Z,5.50
2022-08-02T12:43:05.369Z,7.60
2022-08-02T12:44:05.249Z,7.40
2022-08-02T12:45:05.233Z,5.80
2022-08-02T12:46:05.216Z,9.10
2022-08-02T12:47:05.213Z,5.80
2022-08-02T12:48:05.185Z,6.10
2022-08-02T12:49:19.491Z,7.40
2022-08-02T12:50:05.356Z,6.20
2022-08-02T12:51:05.138Z,8.50
2022-08-02T12:52:06.956Z,7.70
2022-08-02T12:53:05.105Z,6.30
2022-08-02T12:54:05.095Z,6.20
2022-08-02T12:55:05.077Z,8.20
2022-08-02T12:56:05.062Z,7.30
2022-08-02T12:57:05.044Z,6.00
2022-08-02T12:58:05.051Z,6.40
2022-08-02T12:59:05.018Z,7.00
2022-08-02T13:00:05.001Z,6.90
2022-08-02T13:01:05.006Z,10.00
2022-08-02T13:02:04.988Z,7.20
2022-08-02T13:03:08.560Z,7.00
2022-08-02T13:04:09.848Z,7.20
2022-08-02T13:05:04.923Z,6.70
2022-08-02T13:06:23.024Z,7.00
2022-08-02T13:07:04.893Z,8.60
2022-08-02T13:08:04.876Z,6.80
2022-08-02T13:09:04.864Z,6.40
2022-08-02T13:10:04.928Z,6.10
2022-08-02T13:11:04.830Z,5.20
2022-08-02T13:12:04.816Z,5.50